createdAt,value
2023-02-07T00:00:26.062Z,9.18
2023-02-07T00:03:12.979Z,8.45
2023-02-07T00:06:10.894Z,9.40
2023-02-07T00:09:02.206Z,9.35
2023-02-07T00:11:49.016Z,9.63
2023-02-07T00:14:35.796Z,9.48
2023-02-07T00:17:22.604Z,9.65
2023-02-07T00:20:10.042Z,9.48
2023-02-07T00:22:56.909Z,9.45
2023-02-07T00:25:45.977Z,10.38
2023-02-07T00:28:32.937Z,10.13
2023-02-07T00:31:21.164Z,9.63
2023-02-07T00:34:08.449Z,9.73
2023-02-07T00:36:55.285Z,9.07
2023-02-07T00:39:42.387Z,9.85
2023-02-07T00:42:29.186Z,9.55
2023-02-07T00:45:16.081Z,9.38
2023-02-07T00:48:02.940Z,9.77
2023-02-07T00:50:49.720Z,10.00
2023-02-07T00:53:37.130Z,9.38
2023-02-07T00:56:26.361Z,9.20
2023-02-07T00:59:13.178Z,9.70
2023-02-07T01:01:59.987Z,9.52
2023-02-07T01:04:46.835Z,9.15
2023-02-07T01:07:34.274Z,9.50
2023-02-07T01:10:21.132Z,9.40
2023-02-07T01:13:08.327Z,9.35
2023-02-07T01:15:55.111Z,9.30
2023-02-07T01:18:41.905Z,9.80
2023-02-07T01:21:28.785Z,9.85
2023-02-07T01:24:16.323Z,10.10
2023-02-07T01:27:03.988Z,10.50
2023-02-07T01:29:51.266Z,10.27
2023-02-07T01:32:38.128Z,9.90
2023-02-07T01:35:24.918Z,10.38
2023-02-07T01:38:11.684Z,10.25
2023-02-07T01:40:58.475Z,9.45
2023-02-07T01:43:58.894Z,10.00
2023-02-07T01:46:45.644Z,10.68
2023-02-07T01:49:34.403Z,10.05
2023-02-07T01:52:28.335Z,10.15
2023-02-07T01:55:28.565Z,10.57
2023-02-07T01:58:15.860Z,11.57
2023-02-07T02:01:11.040Z,10.27
2023-02-07T02:03:57.960Z,10.80
2023-02-07T02:06:45.819Z,11.18
2023-02-07T02:09:32.643Z,10.73
2023-02-07T02:12:25.562Z,10.75
2023-02-07T02:15:31.147Z,10.52
2023-02-07T02:18:39.047Z,10.63
2023-02-07T02:21:45.657Z,10.65
2023-02-07T02:24:58.766Z,10.65
2023-02-07T02:28:11.573Z,10.93
2023-02-07T02:31:18.337Z,11.00
2023-02-07T02:34:34.208Z,10.65
2023-02-07T02:37:29.487Z,10.82
2023-02-07T02:40:42.172Z,11.13
2023-02-07T02:43:44.979Z,10.35
2023-02-07T02:46:34.942Z,10.48
2023-02-07T02:49:22.093Z,10.88
2023-02-07T02:52:08.853Z,10.93
2023-02-07T02:54:55.654Z,10.90
2023-02-07T02:57:49.383Z,10.38
2023-02-07T03:00:57.116Z,10.65
2023-02-07T03:03:55.911Z,11.07
2023-02-07T03:07:13.298Z,10.68
2023-02-07T03:10:18.826Z,10.25
2023-02-07T03:13:16.422Z,11.80
2023-02-07T03:16:15.514Z,10.88
2023-02-07T03:19:43.068Z,10.70
2023-02-07T03:22:30.132Z,11.50
2023-02-07T03:25:17.874Z,10.80
2023-02-07T03:28:05.501Z,11.38
2023-02-07T03:30:55.636Z,12.18
2023-02-07T03:33:43.874Z,11.38
2023-02-07T03:36:35.353Z,11.07
2023-02-07T03:39:22.192Z,11.77
2023-02-07T03:42:16.975Z,11.05
2023-02-07T03:45:05.939Z,12.30
2023-02-07T03:47:52.784Z,12.23
2023-02-07T03:50:39.571Z,11.45
2023-02-07T03:53:27.098Z,11.38
2023-02-07T03:56:13.873Z,11.73
2023-02-07T03:59:00.674Z,11.40
2023-02-07T04:01:47.440Z,11.23
2023-02-07T04:04:34.414Z,11.60
2023-02-07T04:07:21.204Z,12.05
2023-02-07T04:10:09.368Z,11.88
2023-02-07T04:12:56.144Z,11.82
2023-02-07T04:15:43.399Z,11.40
2023-02-07T04:18:30.182Z,11.45
2023-02-07T04:21:16.954Z,11.23
2023-02-07T04:24:03.887Z,12.20
2023-02-07T04:26:50.681Z,12.00
2023-02-07T04:29:37.542Z,11.63
2023-02-07T04:32:24.377Z,12.60
2023-02-07T04:35:11.238Z,12.93
2023-02-07T04:37:58.026Z,11.85
2023-02-07T04:40:44.804Z,12.55
2023-02-07T04:43:33.437Z,11.52
2023-02-07T04:46:20.265Z,12.50
2023-02-07T04:49:07.076Z,12.32
2023-02-07T04:51:53.907Z,11.98
2023-02-07T04:54:40.714Z,12.82
2023-02-07T04:57:27.516Z,12.15
2023-02-07T05:00:15.045Z,11.77
2023-02-07T05:03:01.873Z,11.98
2023-02-07T05:05:48.854Z,12.65
2023-02-07T05:08:36.925Z,11.82
2023-02-07T05:11:23.828Z,12.02
2023-02-07T05:14:10.706Z,12.43
2023-02-07T05:16:57.581Z,12.60
2023-02-07T05:19:45.005Z,13.00
2023-02-07T05:22:31.866Z,12.52
2023-02-07T05:25:19.069Z,12.77
2023-02-07T05:28:05.875Z,12.15
2023-02-07T05:30:55.222Z,12.02
2023-02-07T05:36:28.786Z,13.18
2023-02-07T05:39:15.604Z,12.50
2023-02-07T05:42:02.487Z,12.00
2023-02-07T05:44:49.273Z,12.32
2023-02-07T05:47:36.086Z,13.23
2023-02-07T05:50:23.295Z,12.68
2023-02-07T05:53:10.195Z,12.55
2023-02-07T05:55:57.018Z,12.30
2023-02-07T05:58:43.780Z,13.25
2023-02-07T06:01:30.562Z,12.90
2023-02-07T06:04:17.399Z,12.20
2023-02-07T06:07:05.042Z,13.30
2023-02-07T06:09:52.038Z,12.38
2023-02-07T06:12:39.371Z,12.60
2023-02-07T06:15:26.141Z,13.43
2023-02-07T06:18:12.917Z,13.50
2023-02-07T06:20:59.729Z,13.38
2023-02-07T06:23:49.639Z,13.50
2023-02-07T06:26:36.562Z,12.85
2023-02-07T06:29:23.399Z,13.82
2023-02-07T06:32:10.181Z,14.85
2023-02-07T06:34:56.973Z,15.65
2023-02-07T06:37:43.782Z,13.65
2023-02-07T06:40:30.553Z,18.10
2023-02-07T06:43:17.351Z,18.08
2023-02-07T06:46:04.272Z,19.25
2023-02-07T06:48:51.363Z,20.13
2023-02-07T06:51:38.133Z,18.92
2023-02-07T06:54:24.912Z,18.55
2023-02-07T06:57:11.819Z,19.92
2023-02-07T06:59:58.579Z,19.13
2023-02-07T07:02:45.361Z,18.17
2023-02-07T07:05:32.721Z,18.60
2023-02-07T07:08:19.688Z,18.83
2023-02-07T07:11:06.465Z,18.40
2023-02-07T07:13:53.227Z,18.50
2023-02-07T07:16:42.795Z,18.38
2023-02-07T07:19:29.562Z,18.13
2023-02-07T07:22:16.621Z,19.13
2023-02-07T07:25:04.384Z,18.02
2023-02-07T07:27:52.539Z,19.85
2023-02-07T07:30:39.423Z,18.67
2023-02-07T07:33:26.193Z,19.20
2023-02-07T07:36:13.159Z,19.67
2023-02-07T07:38:59.922Z,19.65
2023-02-07T07:41:46.898Z,18.58
2023-02-07T07:44:33.744Z,19.05
2023-02-07T07:47:20.514Z,19.80
2023-02-07T07:50:07.860Z,19.15
2023-02-07T07:52:54.640Z,19.90
2023-02-07T07:55:42.088Z,18.88
2023-02-07T07:58:31.886Z,18.67
2023-02-07T08:01:18.750Z,19.17
2023-02-07T08:04:05.738Z,17.98
2023-02-07T08:06:52.908Z,17.48
2023-02-07T08:09:39.668Z,15.25
2023-02-07T08:12:26.507Z,14.30
2023-02-07T08:15:14.087Z,13.93
2023-02-07T08:18:01.022Z,12.63
2023-02-07T08:20:49.823Z,13.73
2023-02-07T08:23:37.207Z,13.43
2023-02-07T08:26:23.993Z,12.55
2023-02-07T08:29:11.119Z,12.75
2023-02-07T08:31:57.914Z,12.23
2023-02-07T08:34:45.411Z,13.25
2023-02-07T08:37:32.208Z,12.63
2023-02-07T08:40:19.494Z,13.38
2023-02-07T08:43:12.132Z,12.65
2023-02-07T08:46:00.508Z,12.23
2023-02-07T08:48:47.584Z,13.90
2023-02-07T08:51:34.343Z,13.00
2023-02-07T08:54:21.158Z,12.55
2023-02-07T08:57:07.937Z,12.50
2023-02-07T08:59:54.814Z,12.45
2023-02-07T09:02:43.374Z,12.35
2023-02-07T09:05:33.741Z,12.30
2023-02-07T09:08:20.521Z,12.25
2023-02-07T09:11:10.248Z,14.13
2023-02-07T09:13:57.067Z,13.07
2023-02-07T09:16:43.861Z,11.70
2023-02-07T09:19:30.793Z,12.57
2023-02-07T09:22:17.541Z,13.18
2023-02-07T09:25:04.538Z,12.35
2023-02-07T09:27:51.608Z,12.98
2023-02-07T09:30:41.627Z,11.30
2023-02-07T09:33:29.767Z,11.95
2023-02-07T09:36:21.908Z,11.60
2023-02-07T09:39:08.676Z,12.27
2023-02-07T09:42:17.887Z,13.70
2023-02-07T09:45:10.138Z,12.25
2023-02-07T09:48:03.294Z,11.50
2023-02-07T09:50:55.426Z,11.88
2023-02-07T09:53:42.082Z,12.43
2023-02-07T09:56:30.155Z,13.43
2023-02-07T09:59:43.396Z,12.80
2023-02-07T10:02:53.226Z,12.93
2023-02-07T10:06:12.851Z,12.27
2023-02-07T10:09:06.524Z,11.65
2023-02-07T10:12:17.368Z,12.82
2023-02-07T10:15:16.877Z,11.02
2023-02-07T10:18:30.242Z,11.98
2023-02-07T10:21:33.584Z,12.98
2023-02-07T10:24:29.443Z,13.60
2023-02-07T10:27:24.329Z,11.88
2023-02-07T10:30:40.788Z,11.15
2023-02-07T10:33:36.235Z,11.20
2023-02-07T10:36:25.023Z,10.63
2023-02-07T10:39:39.277Z,10.70
2023-02-07T10:42:27.481Z,11.35
2023-02-07T10:45:14.764Z,10.50
2023-02-07T10:48:01.526Z,11.40
2023-02-07T10:50:48.362Z,10.63
2023-02-07T10:53:54.711Z,10.85
2023-02-07T10:56:50.364Z,11.98
2023-02-07T10:59:45.765Z,11.57
2023-02-07T11:02:37.348Z,10.55
2023-02-07T11:05:24.123Z,11.07
2023-02-07T11:08:26.095Z,11.23
2023-02-07T11:11:33.227Z,10.60
2023-02-07T11:14:26.585Z,10.82
2023-02-07T11:17:21.193Z,10.27
2023-02-07T11:20:24.327Z,10.23
2023-02-07T11:23:14.229Z,10.02
2023-02-07T11:26:02.649Z,10.55
2023-02-07T11:28:54.550Z,9.97
2023-02-07T11:31:42.235Z,10.57
2023-02-07T11:34:54.471Z,10.75
2023-02-07T11:37:48.593Z,10.88
2023-02-07T11:40:45.564Z,10.63
2023-02-07T11:43:34.374Z,10.63
2023-02-07T11:46:22.233Z,10.88
2023-02-07T11:49:27.472Z,11.23
2023-02-07T11:52:14.358Z,10.40
2023-02-07T11:55:05.879Z,11.15
2023-02-07T11:57:57.528Z,10.77
2023-02-07T12:00:44.862Z,10.10
2023-02-07T12:03:42.088Z,11.50
2023-02-07T12:06:38.569Z,12.23
2023-02-07T12:09:47.039Z,11.48
2023-02-07T12:12:44.206Z,12.30
2023-02-07T12:15:34.080Z,11.60
2023-02-07T12:18:34.528Z,12.23
2023-02-07T12:21:44.672Z,11.80
2023-02-07T12:24:37.256Z,12.05
2023-02-07T12:27:29.343Z,11.75
2023-02-07T12:30:33.278Z,11.43
2023-02-07T12:33:27.344Z,11.20
2023-02-07T12:36:36.808Z,11.15
2023-02-07T12:39:48.486Z,11.20
2023-02-07T12:42:45.496Z,11.38
2023-02-07T12:45:51.597Z,11.23
2023-02-07T12:49:03.386Z,11.25
2023-02-07T12:51:50.079Z,10.57
2023-02-07T12:54:48.682Z,11.02
2023-02-07T12:57:43.829Z,10.43
2023-02-07T13:00:56.841Z,10.73
2023-02-07T13:04:18.536Z,9.55
2023-02-07T13:07:45.979Z,10.02
2023-02-07T13:10:57.388Z,9.95
2023-02-07T13:14:06.580Z,10.27
2023-02-07T13:17:27.493Z,10.10
2023-02-07T13:20:26.106Z,10.02
2023-02-07T13:23:19.253Z,8.60
2023-02-07T13:26:10.738Z,9.10
2023-02-07T13:28:58.352Z,9.02
2023-02-07T13:32:05.432Z,9.40
2023-02-07T13:34:55.317Z,9.60
2023-02-07T13:38:04.104Z,9.25
2023-02-07T13:41:00.301Z,8.98
2023-02-07T13:44:08.965Z,9.23
2023-02-07T13:47:20.735Z,9.18
2023-02-07T13:50:26.014Z,8.57
2023-02-07T13:53:28.896Z,9.05
2023-02-07T13:56:34.988Z,8.73
2023-02-07T13:59:38.894Z,9.23
2023-02-07T14:02:25.781Z,8.38
2023-02-07T14:05:24.824Z,9.13
2023-02-07T14:08:23.990Z,8.77
2023-02-07T14:12:05.497Z,8.27
2023-02-07T14:15:02.282Z,7.90
2023-02-07T14:18:02.636Z,8.50
2023-02-07T14:20:49.993Z,8.52
2023-02-07T14:24:10.147Z,8.27
2023-02-07T14:27:02.428Z,7.72
2023-02-07T14:30:11.685Z,8.25
2023-02-07T14:36:13.626Z,7.90
2023-02-07T14:39:02.398Z,7.63
2023-02-07T14:41:50.621Z,7.85
2023-02-07T14:44:40.195Z,7.93
2023-02-07T14:47:29.211Z,7.82
2023-02-07T14:50:27.977Z,8.30
2023-02-07T14:53:14.922Z,8.27
2023-02-07T14:56:04.705Z,7.88
2023-02-07T14:58:54.258Z,7.50
2023-02-07T15:01:41.051Z,8.05
2023-02-07T15:04:27.845Z,7.97
2023-02-07T15:07:18.916Z,8.75
2023-02-07T15:10:19.485Z,7.80
2023-02-07T15:13:17.706Z,8.07
2023-02-07T15:16:16.771Z,8.50
2023-02-07T15:19:12.560Z,8.00
2023-02-07T15:21:59.783Z,7.32
2023-02-07T15:24:51.819Z,7.72
2023-02-07T15:27:38.935Z,7.38
2023-02-07T15:30:25.939Z,7.57
2023-02-07T15:33:17.731Z,7.60
2023-02-07T15:36:36.645Z,7.75
2023-02-07T15:39:24.990Z,7.90
2023-02-07T15:42:18.745Z,7.72
2023-02-07T15:45:10.652Z,8.48
2023-02-07T15:48:14.376Z,8.30
2023-02-07T15:51:05.283Z,8.38
2023-02-07T15:53:58.429Z,8.30
2023-02-07T15:56:49.800Z,7.93
2023-02-07T15:59:38.913Z,8.20
2023-02-07T16:02:32.884Z,8.50
2023-02-07T16:05:36.276Z,7.90
2023-02-07T16:08:35.169Z,7.15
2023-02-07T16:11:30.216Z,8.02
2023-02-07T16:14:22.375Z,8.60
2023-02-07T16:17:23.419Z,7.38
2023-02-07T16:20:14.597Z,7.00
2023-02-07T16:23:11.482Z,7.93
2023-02-07T16:26:00.974Z,7.40
2023-02-07T16:28:48.090Z,7.35
2023-02-07T16:31:35.545Z,7.13
2023-02-07T16:34:23.236Z,7.95
2023-02-07T16:37:10.026Z,7.47
2023-02-07T16:39:56.887Z,7.47
2023-02-07T16:42:44.117Z,7.40
2023-02-07T16:45:32.517Z,7.70
2023-02-07T16:48:19.357Z,7.47
2023-02-07T16:51:06.284Z,7.07
2023-02-07T16:53:53.315Z,8.70
2023-02-07T16:56:41.200Z,7.97
2023-02-07T16:59:28.231Z,7.63
2023-02-07T17:02:16.429Z,7.57
2023-02-07T17:05:03.536Z,8.23
2023-02-07T17:07:50.964Z,8.60
2023-02-07T17:10:38.348Z,7.82
2023-02-07T17:13:25.709Z,8.98
2023-02-07T17:16:13.575Z,7.45
2023-02-07T17:19:01.445Z,8.20
2023-02-07T17:21:48.512Z,8.20
2023-02-07T17:24:35.300Z,8.02
2023-02-07T17:27:22.050Z,7.43
2023-02-07T17:30:18.245Z,7.50
2023-02-07T17:33:08.783Z,8.75
2023-02-07T17:35:55.592Z,7.35
2023-02-07T17:38:42.493Z,8.15
2023-02-07T17:41:30.467Z,7.63
2023-02-07T17:44:21.283Z,7.93
2023-02-07T17:47:09.344Z,7.57
2023-02-07T17:49:56.159Z,7.25
2023-02-07T17:52:42.975Z,7.85
2023-02-07T17:55:31.662Z,8.23
2023-02-07T17:58:18.939Z,9.15
2023-02-07T18:01:05.888Z,7.63
2023-02-07T18:03:53.951Z,9.23
2023-02-07T18:06:40.833Z,8.40
2023-02-07T18:09:27.651Z,10.32
2023-02-07T18:12:17.358Z,9.43
2023-02-07T18:15:05.482Z,9.15
2023-02-07T18:17:52.807Z,9.80
2023-02-07T18:20:39.773Z,9.50
2023-02-07T18:23:26.704Z,10.25
2023-02-07T18:26:15.617Z,9.95
2023-02-07T18:29:02.766Z,10.10
2023-02-07T18:31:49.550Z,10.15
2023-02-07T18:34:36.343Z,10.18
2023-02-07T18:37:23.218Z,10.15
2023-02-07T18:40:10.543Z,11.07
2023-02-07T18:42:57.400Z,10.30
2023-02-07T18:45:44.729Z,10.52
2023-02-07T18:48:31.488Z,11.48
2023-02-07T18:51:18.559Z,12.18
2023-02-07T18:54:05.484Z,12.10
2023-02-07T18:56:52.616Z,12.23
2023-02-07T18:59:39.569Z,11.95
2023-02-07T19:02:26.466Z,12.65
2023-02-07T19:05:13.247Z,12.45
2023-02-07T19:08:00.057Z,12.93
2023-02-07T19:10:55.966Z,12.32
2023-02-07T19:13:43.254Z,12.80
2023-02-07T19:16:30.205Z,13.93
2023-02-07T19:19:17.068Z,12.40
2023-02-07T19:22:03.919Z,12.50
2023-02-07T19:24:50.717Z,13.23
2023-02-07T19:27:37.550Z,13.60
2023-02-07T19:30:24.460Z,12.85
2023-02-07T19:33:11.392Z,13.30
2023-02-07T19:36:06.898Z,13.07
2023-02-07T19:38:54.378Z,12.30
2023-02-07T19:41:41.222Z,13.85
2023-02-07T19:44:27.994Z,14.60
2023-02-07T19:47:14.793Z,14.20
2023-02-07T19:50:02.246Z,13.55
2023-02-07T19:52:49.047Z,14.27
2023-02-07T19:55:38.890Z,15.13
2023-02-07T19:58:25.680Z,14.68
2023-02-07T20:01:13.534Z,14.82
2023-02-07T20:04:00.742Z,15.70
2023-02-07T20:06:47.640Z,13.82
2023-02-07T20:09:34.480Z,14.75
2023-02-07T20:12:21.474Z,14.43
2023-02-07T20:15:08.762Z,14.27
2023-02-07T20:17:59.239Z,14.65
2023-02-07T20:20:48.077Z,16.60
2023-02-07T20:23:35.632Z,16.35
2023-02-07T20:26:31.727Z,17.17
2023-02-07T20:29:19.706Z,16.48
2023-02-07T20:32:06.482Z,16.00
2023-02-07T20:34:53.305Z,16.27
2023-02-07T20:37:40.112Z,15.65
2023-02-07T20:40:26.902Z,15.73
2023-02-07T20:43:13.668Z,16.10
2023-02-07T20:46:12.995Z,15.77
2023-02-07T20:51:49.213Z,13.93
2023-02-07T20:54:36.050Z,15.38
2023-02-07T20:57:22.870Z,15.00
2023-02-07T21:00:10.509Z,15.68
2023-02-07T21:02:57.300Z,16.33
2023-02-07T21:05:44.091Z,15.75
2023-02-07T21:08:40.271Z,14.88
2023-02-07T21:11:28.836Z,16.60
2023-02-07T21:14:25.442Z,14.65
2023-02-07T21:17:12.514Z,14.30
2023-02-07T21:19:59.367Z,15.27
2023-02-07T21:22:46.152Z,16.65
2023-02-07T21:25:32.895Z,17.10
2023-02-07T21:28:19.778Z,16.50
2023-02-07T21:31:09.883Z,16.38
2023-02-07T21:33:56.909Z,17.73
2023-02-07T21:36:44.527Z,15.75
2023-02-07T21:39:31.295Z,17.95
2023-02-07T21:42:18.075Z,16.30
2023-02-07T21:45:05.165Z,17.23
2023-02-07T21:47:51.966Z,17.48
2023-02-07T21:50:38.979Z,16.90
2023-02-07T21:53:25.915Z,16.90
2023-02-07T21:56:16.444Z,15.52
2023-02-07T21:59:07.137Z,15.45
2023-02-07T22:01:54.240Z,16.55
2023-02-07T22:04:41.089Z,16.13
2023-02-07T22:07:27.895Z,16.25
2023-02-07T22:10:14.733Z,16.63
2023-02-07T22:13:01.553Z,16.42
2023-02-07T22:15:50.996Z,14.27
2023-02-07T22:18:40.542Z,15.30
2023-02-07T22:21:33.051Z,16.02
2023-02-07T22:24:20.574Z,15.63
2023-02-07T22:27:13.447Z,16.48
2023-02-07T22:30:00.228Z,16.30
2023-02-07T22:32:47.066Z,16.63
2023-02-07T22:35:37.884Z,16.58
2023-02-07T22:38:24.689Z,16.75
2023-02-07T22:41:11.501Z,16.02
2023-02-07T22:43:58.658Z,15.82
2023-02-07T22:46:45.502Z,16.08
2023-02-07T22:49:33.814Z,16.13
2023-02-07T22:52:20.658Z,16.08
2023-02-07T22:55:07.645Z,14.13
2023-02-07T22:57:54.966Z,16.05
2023-02-07T23:00:42.734Z,14.85
2023-02-07T23:03:29.569Z,15.82
2023-02-07T23:06:16.518Z,15.57
2023-02-07T23:09:05.288Z,15.60
2023-02-07T23:11:52.162Z,14.60
2023-02-07T23:14:38.991Z,14.77
2023-02-07T23:17:27.163Z,15.32
2023-02-07T23:20:14.060Z,15.18
2023-02-07T23:23:00.824Z,15.13
2023-02-07T23:25:47.678Z,14.93
2023-02-07T23:28:34.699Z,14.65
2023-02-07T23:31:23.294Z,15.77
2023-02-07T23:34:10.210Z,14.65
2023-02-07T23:36:56.997Z,13.57
2023-02-07T23:39:43.856Z,14.63
2023-02-07T23:42:30.681Z,14.35
2023-02-07T23:45:22.741Z,14.15
2023-02-07T23:48:09.689Z,14.38
2023-02-07T23:50:58.017Z,14.60
2023-02-07T23:53:45.346Z,14.70
2023-02-07T23:56:32.398Z,14.38
2023-02-07T23:59:19.181Z,13.98
